createdAt,value
2018-12-12T00:01:45.175Z,16.20
2018-12-12T00:04:14.730Z,16.30
2018-12-12T00:06:47.489Z,16.20
2018-12-12T00:09:17.092Z,16.20
2018-12-12T00:11:46.628Z,16.20
2018-12-12T00:14:16.422Z,16.30
2018-12-12T00:16:46.008Z,16.20
2018-12-12T00:19:15.512Z,16.30
2018-12-12T00:21:45.207Z,16.30
2018-12-12T00:24:14.692Z,16.30
2018-12-12T00:26:44.486Z,16.20
2018-12-12T00:29:14.189Z,16.30
2018-12-12T00:31:49.528Z,16.20
2018-12-12T00:34:19.171Z,16.20
2018-12-12T00:36:51.031Z,16.30
2018-12-12T00:39:20.890Z,16.30
2018-12-12T00:41:50.460Z,16.30
2018-12-12T00:44:20.325Z,16.30
2018-12-12T00:46:50.054Z,16.30
2018-12-12T00:49:20.774Z,16.30
2018-12-12T00:51:50.317Z,16.30
2018-12-12T00:54:22.598Z,16.30
2018-12-12T00:56:52.055Z,16.30
2018-12-12T00:59:21.777Z,16.30
2018-12-12T01:01:55.058Z,16.30
2018-12-12T01:04:27.448Z,16.30
2018-12-12T01:06:57.835Z,16.20
2018-12-12T01:09:27.426Z,16.30
2018-12-12T01:12:03.880Z,16.30
2018-12-12T01:14:33.650Z,16.30
2018-12-12T01:17:06.548Z,16.30
2018-12-12T01:19:36.453Z,16.30
2018-12-12T01:22:06.011Z,16.20
2018-12-12T01:24:35.499Z,16.20
2018-12-12T01:27:05.268Z,16.20
2018-12-12T01:29:34.938Z,16.20
2018-12-12T01:32:04.790Z,16.30
2018-12-12T01:34:37.050Z,16.30
2018-12-12T01:37:07.000Z,16.30
2018-12-12T01:39:36.606Z,16.20
2018-12-12T01:42:09.259Z,16.20
2018-12-12T01:44:38.769Z,16.20
2018-12-12T01:47:09.060Z,16.20
2018-12-12T01:49:38.621Z,16.20
2018-12-12T01:52:08.792Z,16.20
2018-12-12T01:54:38.263Z,16.20
2018-12-12T01:57:08.657Z,16.20
2018-12-12T01:59:38.555Z,16.20
2018-12-12T02:02:08.489Z,16.30
2018-12-12T02:04:38.034Z,16.30
2018-12-12T02:07:07.827Z,16.20
2018-12-12T02:09:37.401Z,16.30
2018-12-12T02:12:06.980Z,16.30
2018-12-12T02:14:36.555Z,16.30
2018-12-12T02:17:05.996Z,16.30
2018-12-12T02:19:35.499Z,16.30
2018-12-12T02:22:08.113Z,16.30
2018-12-12T02:24:37.887Z,16.30
2018-12-12T02:27:07.688Z,16.30
2018-12-12T02:31:06.932Z,16.30
2018-12-12T02:33:38.841Z,16.30
2018-12-12T02:36:08.560Z,16.30
2018-12-12T02:38:40.210Z,16.30
2018-12-12T02:41:09.778Z,16.30
2018-12-12T02:43:39.418Z,16.40
2018-12-12T02:46:09.450Z,16.40
2018-12-12T02:48:38.937Z,16.40
2018-12-12T02:51:08.673Z,16.40
2018-12-12T02:53:40.070Z,16.40
2018-12-12T02:56:09.844Z,16.40
2018-12-12T02:58:39.348Z,16.40
2018-12-12T03:01:08.876Z,16.30
2018-12-12T03:03:38.475Z,16.30
2018-12-12T03:06:08.081Z,16.40
2018-12-12T03:08:38.413Z,16.30
2018-12-12T03:11:07.928Z,16.30
2018-12-12T03:13:42.085Z,16.30
2018-12-12T03:16:11.586Z,16.30
2018-12-12T03:18:41.753Z,16.30
2018-12-12T03:21:11.611Z,16.40
2018-12-12T03:23:41.511Z,16.40
2018-12-12T03:26:10.982Z,16.30
2018-12-12T03:28:40.481Z,16.30
2018-12-12T03:31:11.999Z,16.30
2018-12-12T03:33:42.699Z,16.30
2018-12-12T03:36:17.148Z,16.30
2018-12-12T03:38:47.595Z,16.30
2018-12-12T03:41:17.432Z,16.30
2018-12-12T03:43:46.864Z,16.30
2018-12-12T03:46:17.179Z,16.30
2018-12-12T03:48:46.614Z,16.30
2018-12-12T03:51:15.986Z,16.40
2018-12-12T03:53:45.671Z,16.40
2018-12-12T03:56:15.155Z,16.30
2018-12-12T03:58:44.913Z,16.30
2018-12-12T04:01:14.547Z,16.30
2018-12-12T04:03:47.683Z,16.30
2018-12-12T04:06:17.495Z,16.30
2018-12-12T04:08:47.464Z,16.30
2018-12-12T04:11:18.025Z,16.30
2018-12-12T04:13:47.949Z,16.20
2018-12-12T04:16:17.821Z,16.20
2018-12-12T04:18:48.034Z,16.30
2018-12-12T04:21:17.551Z,16.30
2018-12-12T04:23:47.179Z,16.30
2018-12-12T04:26:16.845Z,16.30
2018-12-12T04:28:46.603Z,16.30
2018-12-12T04:31:16.239Z,16.30
2018-12-12T04:33:45.818Z,16.40
2018-12-12T04:36:16.273Z,16.40
2018-12-12T04:38:45.838Z,16.40
2018-12-12T04:41:15.353Z,16.40
2018-12-12T04:43:45.066Z,16.40
2018-12-12T04:46:14.583Z,16.40
2018-12-12T04:48:44.730Z,16.30
2018-12-12T04:51:14.312Z,16.20
2018-12-12T04:53:44.043Z,16.10
2018-12-12T04:56:13.881Z,16.10
2018-12-12T04:58:43.519Z,16.10
2018-12-12T05:01:13.283Z,16.00
2018-12-12T05:03:42.737Z,16.00
2018-12-12T05:06:17.831Z,16.00
2018-12-12T05:08:47.427Z,16.00
2018-12-12T05:11:22.458Z,15.90
2018-12-12T05:13:51.919Z,15.90
2018-12-12T05:16:21.405Z,15.90
2018-12-12T05:18:55.925Z,15.90
2018-12-12T05:21:26.022Z,15.80
2018-12-12T05:23:59.597Z,15.70
2018-12-12T05:26:29.065Z,15.70
2018-12-12T05:29:03.328Z,15.70
2018-12-12T05:31:32.800Z,15.70
2018-12-12T05:34:11.887Z,15.70
2018-12-12T05:36:41.299Z,15.70
2018-12-12T05:39:16.703Z,15.80
2018-12-12T05:41:46.440Z,15.80
2018-12-12T05:44:17.829Z,15.80
2018-12-12T05:46:53.383Z,15.90
2018-12-12T05:49:23.683Z,15.90
2018-12-12T05:51:53.312Z,16.00
2018-12-12T05:54:23.898Z,15.90
2018-12-12T05:56:54.854Z,16.00
2018-12-12T06:01:59.352Z,15.90
2018-12-12T06:04:34.531Z,15.90
2018-12-12T06:07:04.166Z,15.90
2018-12-12T06:09:35.498Z,15.90
2018-12-12T06:12:07.665Z,15.90
2018-12-12T06:14:37.698Z,15.90
2018-12-12T06:17:07.412Z,15.90
2018-12-12T06:19:37.219Z,15.90
2018-12-12T06:22:07.502Z,15.90
2018-12-12T06:27:21.472Z,16.10
2018-12-12T06:29:58.774Z,16.10
2018-12-12T06:32:29.071Z,16.20
2018-12-12T06:34:58.702Z,16.20
2018-12-12T06:37:29.272Z,16.30
2018-12-12T06:39:59.997Z,16.30
2018-12-12T06:42:29.935Z,16.40
2018-12-12T06:45:05.983Z,16.50
2018-12-12T06:47:36.344Z,16.50
2018-12-12T06:50:06.118Z,16.50
2018-12-12T06:52:35.623Z,16.50
2018-12-12T06:55:08.358Z,16.50
2018-12-12T06:57:38.967Z,16.70
2018-12-12T07:00:14.076Z,17.10
2018-12-12T07:02:43.773Z,17.50
2018-12-12T07:05:13.814Z,17.80
2018-12-12T07:07:47.596Z,18.10
2018-12-12T07:10:20.814Z,18.30
2018-12-12T07:12:55.108Z,18.40
2018-12-12T07:15:24.471Z,18.60
2018-12-12T07:17:59.138Z,18.60
2018-12-12T07:20:28.646Z,18.70
2018-12-12T07:23:02.982Z,18.70
2018-12-12T07:25:32.639Z,18.80
2018-12-12T07:28:03.456Z,18.80
2018-12-12T07:30:38.254Z,18.90
2018-12-12T07:33:07.989Z,19.00
2018-12-12T07:35:37.968Z,19.00
2018-12-12T07:38:13.154Z,19.00
2018-12-12T07:40:43.915Z,19.10
2018-12-12T07:43:18.896Z,19.00
2018-12-12T07:45:48.304Z,19.10
2018-12-12T07:48:19.379Z,19.10
2018-12-12T07:50:48.840Z,19.10
2018-12-12T07:53:19.753Z,19.10
2018-12-12T07:55:49.272Z,19.10
2018-12-12T07:58:26.220Z,19.10
2018-12-12T08:01:03.360Z,19.10
2018-12-12T08:03:32.931Z,19.10
2018-12-12T08:06:05.848Z,19.10
2018-12-12T08:08:42.581Z,19.10
2018-12-12T08:11:12.665Z,19.20
2018-12-12T08:13:42.542Z,19.10
2018-12-12T08:16:14.282Z,19.20
2018-12-12T08:18:53.166Z,19.20
2018-12-12T08:21:29.332Z,19.20
2018-12-12T08:24:02.993Z,19.20
2018-12-12T08:26:32.774Z,19.20
2018-12-12T08:29:07.080Z,19.20
2018-12-12T08:31:36.796Z,19.20
2018-12-12T08:34:12.319Z,19.30
2018-12-12T08:36:50.247Z,19.20
2018-12-12T08:39:25.664Z,19.20
2018-12-12T08:41:55.501Z,19.30
2018-12-12T08:44:30.005Z,19.30
2018-12-12T08:46:59.827Z,19.30
2018-12-12T08:49:30.244Z,19.40
2018-12-12T08:51:59.795Z,19.30
2018-12-12T08:54:30.747Z,19.30
2018-12-12T08:57:01.234Z,19.40
2018-12-12T08:59:30.720Z,19.30
2018-12-12T09:02:06.095Z,19.30
2018-12-12T09:04:40.930Z,19.30
2018-12-12T09:07:16.122Z,19.30
2018-12-12T09:09:48.869Z,19.30
2018-12-12T09:12:18.571Z,19.30
2018-12-12T09:14:48.255Z,19.30
2018-12-12T09:17:17.804Z,19.20
2018-12-12T09:19:50.007Z,19.20
2018-12-12T09:22:25.110Z,19.20
2018-12-12T09:24:54.604Z,19.20
2018-12-12T09:27:31.287Z,19.20
2018-12-12T09:30:00.905Z,19.20
2018-12-12T09:32:35.982Z,19.20
2018-12-12T09:37:41.093Z,19.20
2018-12-12T09:40:11.424Z,19.20
2018-12-12T09:42:45.774Z,19.20
2018-12-12T09:45:21.546Z,19.20
2018-12-12T09:47:51.610Z,19.20
2018-12-12T09:50:21.334Z,19.20
2018-12-12T09:52:55.368Z,19.20
2018-12-12T09:55:24.999Z,19.20
2018-12-12T09:57:54.539Z,19.20
2018-12-12T10:00:28.691Z,19.30
2018-12-12T10:02:59.148Z,19.30
2018-12-12T10:05:28.868Z,19.30
2018-12-12T10:07:58.501Z,19.30
2018-12-12T10:10:32.918Z,19.30
2018-12-12T10:13:02.623Z,19.30
2018-12-12T10:15:37.321Z,19.20
2018-12-12T10:18:07.241Z,19.20
2018-12-12T10:20:38.529Z,19.20
2018-12-12T10:23:08.130Z,19.20
2018-12-12T10:25:43.057Z,19.20
2018-12-12T10:28:13.365Z,19.20
2018-12-12T10:33:23.346Z,19.20
2018-12-12T10:35:52.881Z,19.20
2018-12-12T10:38:26.011Z,19.20
2018-12-12T10:40:55.693Z,19.20
2018-12-12T10:43:26.446Z,19.20
2018-12-12T10:45:55.997Z,19.20
2018-12-12T10:48:25.613Z,19.20
2018-12-12T10:51:01.945Z,19.20
2018-12-12T10:53:33.586Z,19.20
2018-12-12T10:56:03.676Z,19.20
2018-12-12T10:58:33.338Z,19.20
2018-12-12T11:01:08.064Z,19.20
2018-12-12T11:03:44.321Z,19.20
2018-12-12T11:06:15.461Z,19.30
2018-12-12T11:08:51.167Z,19.20
2018-12-12T11:11:26.980Z,19.30
2018-12-12T11:13:59.656Z,19.30
2018-12-12T11:16:49.702Z,19.30
2018-12-12T11:19:19.223Z,19.40
2018-12-12T11:21:49.782Z,19.40
2018-12-12T11:24:25.473Z,19.40
2018-12-12T11:26:55.826Z,19.40
2018-12-12T11:29:26.186Z,19.30
2018-12-12T11:31:55.978Z,19.20
2018-12-12T11:34:28.360Z,19.20
2018-12-12T11:36:57.868Z,19.10
2018-12-12T11:39:29.412Z,19.00
2018-12-12T11:41:59.100Z,19.00
2018-12-12T11:44:32.387Z,19.00
2018-12-12T11:47:04.089Z,19.00
2018-12-12T11:49:33.836Z,18.90
2018-12-12T11:52:06.451Z,18.90
2018-12-12T11:54:41.190Z,19.00
2018-12-12T11:59:45.693Z,19.00
2018-12-12T12:02:20.817Z,19.10
2018-12-12T12:04:50.391Z,19.00
2018-12-12T12:07:19.935Z,19.10
2018-12-12T12:09:57.021Z,19.10
2018-12-12T12:12:26.792Z,19.10
2018-12-12T12:15:02.328Z,19.10
2018-12-12T12:17:32.227Z,19.10
2018-12-12T12:20:05.399Z,19.00
2018-12-12T12:22:35.046Z,19.00
2018-12-12T12:25:05.000Z,19.00
2018-12-12T12:27:34.509Z,19.00
2018-12-12T12:30:07.160Z,19.00
2018-12-12T12:32:42.084Z,19.00
2018-12-12T12:35:11.938Z,19.10
2018-12-12T12:37:41.451Z,19.00
2018-12-12T12:40:13.652Z,19.10
2018-12-12T12:45:18.843Z,19.10
2018-12-12T12:47:48.527Z,19.10
2018-12-12T12:50:22.593Z,19.10
2018-12-12T12:52:57.772Z,19.10
2018-12-12T12:55:27.579Z,19.00
2018-12-12T12:58:03.425Z,19.00
2018-12-12T13:00:36.303Z,19.00
2018-12-12T13:05:46.713Z,19.00
2018-12-12T13:08:16.220Z,19.10
2018-12-12T13:13:21.520Z,19.10
2018-12-12T13:15:55.500Z,19.00
2018-12-12T13:18:25.202Z,19.00
2018-12-12T13:20:56.869Z,19.00
2018-12-12T13:23:36.530Z,18.90
2018-12-12T13:26:06.472Z,18.90
2018-12-12T13:28:37.271Z,18.90
2018-12-12T13:31:06.959Z,19.00
2018-12-12T13:33:54.744Z,18.90
2018-12-12T13:36:25.303Z,18.90
2018-12-12T13:39:08.195Z,18.90
2018-12-12T13:41:51.625Z,18.90
2018-12-12T13:44:25.821Z,18.80
2018-12-12T13:46:55.618Z,18.90
2018-12-12T13:49:27.242Z,18.90
2018-12-12T13:52:02.199Z,19.00
2018-12-12T13:54:31.766Z,19.10
2018-12-12T13:57:01.660Z,19.10
2018-12-12T13:59:31.512Z,19.10
2018-12-12T14:04:42.829Z,19.10
2018-12-12T14:07:12.662Z,19.10
2018-12-12T14:09:47.799Z,19.10
2018-12-12T14:12:17.685Z,19.00
2018-12-12T14:14:50.548Z,19.00
2018-12-12T14:17:24.948Z,19.00
2018-12-12T14:19:54.585Z,19.00
2018-12-12T14:22:34.663Z,19.00
2018-12-12T14:25:14.746Z,19.00
2018-12-12T14:27:45.083Z,19.00
2018-12-12T14:32:51.946Z,19.00
2018-12-12T14:36:06.120Z,19.00
2018-12-12T14:38:37.063Z,18.90
2018-12-12T14:41:12.208Z,18.90
2018-12-12T14:44:09.376Z,19.00
2018-12-12T14:46:44.399Z,19.00
2018-12-12T14:49:14.119Z,19.00
2018-12-12T14:51:46.263Z,19.00
2018-12-12T14:54:15.826Z,18.90
2018-12-12T14:56:47.573Z,19.00
2018-12-12T14:59:18.458Z,18.90
2018-12-12T15:01:48.087Z,19.00
2018-12-12T15:04:19.485Z,19.00
2018-12-12T15:06:49.331Z,19.00
2018-12-12T15:09:18.825Z,19.00
2018-12-12T15:11:58.473Z,19.00
2018-12-12T15:14:28.284Z,19.00
2018-12-12T15:17:03.674Z,19.00
2018-12-12T15:19:33.145Z,19.00
2018-12-12T15:22:05.162Z,19.00
2018-12-12T15:24:35.530Z,18.90
2018-12-12T15:27:09.830Z,18.90
2018-12-12T15:29:39.504Z,18.90
2018-12-12T15:32:11.792Z,18.90
2018-12-12T15:34:42.383Z,18.90
2018-12-12T15:37:12.263Z,18.80
2018-12-12T15:39:50.796Z,18.90
2018-12-12T15:42:21.831Z,18.80
2018-12-12T15:44:57.214Z,18.80
2018-12-12T15:47:29.885Z,18.80
2018-12-12T15:49:59.730Z,18.80
2018-12-12T15:52:29.822Z,18.80
2018-12-12T15:57:41.579Z,18.80
2018-12-12T16:00:11.727Z,18.90
2018-12-12T16:02:49.163Z,18.90
2018-12-12T16:05:19.173Z,18.90
2018-12-12T16:07:54.906Z,18.90
2018-12-12T16:10:24.917Z,18.90
2018-12-12T16:12:54.659Z,18.90
2018-12-12T16:17:59.820Z,18.90
2018-12-12T16:20:29.909Z,19.00
2018-12-12T16:23:04.939Z,19.00
2018-12-12T16:26:43.278Z,19.00
2018-12-12T16:29:13.219Z,19.00
2018-12-12T16:31:42.876Z,19.00
2018-12-12T16:34:17.184Z,19.10
2018-12-12T16:36:49.437Z,19.10
2018-12-12T16:39:19.145Z,19.00
2018-12-12T16:41:48.811Z,19.00
2018-12-12T16:44:23.666Z,19.00
2018-12-12T16:46:53.285Z,18.90
2018-12-12T16:49:24.872Z,18.90
2018-12-12T16:51:54.610Z,18.90
2018-12-12T16:54:36.763Z,18.90
2018-12-12T16:57:13.566Z,18.90
2018-12-12T16:59:43.065Z,18.90
2018-12-12T17:03:42.425Z,18.90
2018-12-12T17:08:55.714Z,18.80
2018-12-12T17:11:31.975Z,18.80
2018-12-12T17:14:01.690Z,18.80
2018-12-12T17:16:31.252Z,18.80
2018-12-12T17:19:01.123Z,18.80
2018-12-12T17:21:30.824Z,18.80
2018-12-12T17:24:05.940Z,18.80
2018-12-12T17:26:36.836Z,18.80
2018-12-12T17:29:07.237Z,18.80
2018-12-12T17:31:36.728Z,18.80
2018-12-12T17:34:06.503Z,18.80
2018-12-12T17:36:43.446Z,18.80
2018-12-12T17:39:13.341Z,18.90
2018-12-12T17:41:42.905Z,18.90
2018-12-12T17:44:15.226Z,18.90
2018-12-12T17:46:50.117Z,18.90
2018-12-12T17:49:19.847Z,19.00
2018-12-12T17:51:54.632Z,19.00
2018-12-12T17:54:31.359Z,19.00
2018-12-12T17:57:04.495Z,18.90
2018-12-12T17:59:36.620Z,19.00
2018-12-12T18:02:06.334Z,19.00
2018-12-12T18:04:36.193Z,18.90
2018-12-12T18:07:12.436Z,18.90
2018-12-12T18:09:49.924Z,18.90
2018-12-12T18:12:19.583Z,18.80
2018-12-12T18:14:48.997Z,18.90
2018-12-12T18:17:18.646Z,18.90
2018-12-12T18:19:48.152Z,18.90
2018-12-12T18:22:17.710Z,18.90
2018-12-12T18:24:53.433Z,18.90
2018-12-12T18:27:25.628Z,18.90
2018-12-12T18:31:30.168Z,19.00
2018-12-12T18:34:04.897Z,18.90
2018-12-12T18:36:40.700Z,19.00
2018-12-12T18:39:10.930Z,19.20
